createdAt,value
2018-02-12T00:00:59.967Z,25.67
2018-02-12T00:03:26.684Z,26.23
2018-02-12T00:05:53.448Z,25.80
2018-02-12T00:08:20.157Z,26.73
2018-02-12T00:10:46.884Z,25.80
2018-02-12T00:13:13.643Z,25.77
2018-02-12T00:15:40.357Z,26.00
2018-02-12T00:18:07.135Z,27.10
2018-02-12T00:20:33.879Z,25.93
2018-02-12T00:23:00.607Z,24.40
2018-02-12T00:25:27.347Z,26.20
2018-02-12T00:27:54.095Z,25.33
2018-02-12T00:30:20.818Z,25.10
2018-02-12T00:32:47.547Z,26.03
2018-02-12T00:35:14.286Z,24.90
2018-02-12T00:37:41.037Z,24.37
2018-02-12T00:40:07.764Z,24.90
2018-02-12T00:42:34.475Z,26.33
2018-02-12T00:45:01.203Z,25.37
2018-02-12T00:47:27.922Z,25.43
2018-02-12T00:49:54.688Z,23.97
2018-02-12T00:52:21.415Z,25.53
2018-02-12T00:54:48.130Z,25.70
2018-02-12T00:57:14.896Z,26.10
2018-02-12T00:59:41.713Z,25.53
2018-02-12T01:02:08.479Z,25.50
2018-02-12T01:04:35.184Z,27.00
2018-02-12T01:07:01.965Z,22.90
2018-02-12T01:09:28.701Z,25.77
2018-02-12T01:11:55.437Z,25.87
2018-02-12T01:14:22.230Z,25.67
2018-02-12T01:16:48.949Z,27.10
2018-02-12T01:19:15.662Z,25.13
2018-02-12T01:21:42.403Z,23.83
2018-02-12T01:24:09.125Z,25.07
2018-02-12T01:26:35.883Z,24.27
2018-02-12T01:29:02.626Z,22.90
2018-02-12T01:31:29.351Z,23.90
2018-02-12T01:33:56.078Z,27.03
2018-02-12T01:36:22.840Z,26.80
2018-02-12T01:38:49.609Z,23.50
2018-02-12T01:41:16.329Z,25.23
2018-02-12T01:43:43.072Z,28.30
2018-02-12T01:46:09.819Z,22.47
2018-02-12T01:48:36.525Z,24.50
2018-02-12T01:51:03.265Z,23.53
2018-02-12T01:53:29.985Z,22.80
2018-02-12T01:55:56.702Z,24.13
2018-02-12T01:58:23.426Z,24.00
2018-02-12T02:00:50.176Z,23.67
2018-02-12T02:03:16.909Z,26.33
2018-02-12T02:05:43.620Z,24.90
2018-02-12T02:08:10.351Z,24.77
2018-02-12T02:10:37.101Z,25.93
2018-02-12T02:13:03.827Z,25.53
2018-02-12T02:15:30.562Z,23.50
2018-02-12T02:17:57.326Z,23.60
2018-02-12T02:20:24.117Z,22.00
2018-02-12T02:22:50.833Z,22.23
2018-02-12T02:25:17.577Z,24.50
2018-02-12T02:27:44.302Z,21.23
2018-02-12T02:30:11.015Z,21.50
2018-02-12T02:32:37.768Z,21.00
2018-02-12T02:35:04.480Z,23.30
2018-02-12T02:37:31.239Z,20.60
2018-02-12T02:39:57.963Z,23.00
2018-02-12T02:42:24.760Z,24.07
2018-02-12T02:44:51.526Z,23.63
2018-02-12T02:47:18.261Z,23.33
2018-02-12T02:49:45.007Z,23.93
2018-02-12T02:52:11.717Z,22.50
2018-02-12T02:54:38.435Z,23.43
2018-02-12T02:57:05.171Z,24.90
2018-02-12T02:59:31.875Z,24.33
2018-02-12T03:01:58.621Z,24.93
2018-02-12T03:04:25.356Z,25.00
2018-02-12T03:06:52.066Z,25.63
2018-02-12T03:09:18.792Z,26.60
2018-02-12T03:11:45.513Z,22.83
2018-02-12T03:14:12.245Z,25.50
2018-02-12T03:16:38.981Z,23.93
2018-02-12T03:19:05.702Z,22.33
2018-02-12T03:21:32.441Z,25.00
2018-02-12T03:23:59.163Z,24.57
2018-02-12T03:26:25.890Z,22.97
2018-02-12T03:28:52.598Z,27.90
2018-02-12T03:31:19.354Z,26.33
2018-02-12T03:33:46.110Z,27.77
2018-02-12T03:36:12.839Z,26.00
2018-02-12T03:38:39.566Z,25.83
2018-02-12T03:41:06.302Z,24.00
2018-02-12T03:43:33.048Z,23.97
2018-02-12T03:46:01.637Z,25.43
2018-02-12T03:48:28.361Z,24.77
2018-02-12T03:50:55.106Z,26.33
2018-02-12T03:53:21.815Z,25.97
2018-02-12T03:55:48.541Z,25.90
2018-02-12T03:58:15.282Z,24.27
2018-02-12T04:00:41.993Z,23.23
2018-02-12T04:03:08.734Z,23.77
2018-02-12T04:05:35.495Z,24.23
2018-02-12T04:08:02.206Z,23.60
2018-02-12T04:10:28.949Z,24.10
2018-02-12T04:12:55.654Z,24.77
2018-02-12T04:15:22.359Z,26.70
2018-02-12T04:17:49.110Z,26.90
2018-02-12T04:20:15.833Z,24.13
2018-02-12T04:22:42.590Z,26.87
2018-02-12T04:25:09.322Z,27.43
2018-02-12T04:27:36.038Z,25.40
2018-02-12T04:30:02.795Z,25.90
2018-02-12T04:32:29.527Z,23.17
2018-02-12T04:34:56.266Z,21.83
2018-02-12T04:37:22.971Z,22.90
2018-02-12T04:39:49.712Z,21.60
2018-02-12T04:42:16.450Z,21.43
2018-02-12T04:44:43.157Z,22.53
2018-02-12T04:47:09.938Z,24.07
2018-02-12T04:49:36.641Z,23.50
2018-02-12T04:52:03.368Z,23.10
2018-02-12T04:54:30.114Z,23.00
2018-02-12T04:56:56.828Z,22.33
2018-02-12T04:59:23.702Z,24.27
2018-02-12T05:01:50.402Z,21.67
2018-02-12T05:04:17.117Z,22.77
2018-02-12T05:06:43.865Z,22.83
2018-02-12T05:09:10.743Z,22.57
2018-02-12T05:11:37.518Z,25.53
2018-02-12T05:14:04.234Z,24.83
2018-02-12T05:16:30.946Z,23.47
2018-02-12T05:18:57.674Z,26.20
2018-02-12T05:21:24.397Z,23.83
2018-02-12T05:23:51.104Z,22.03
2018-02-12T05:26:17.846Z,22.23
2018-02-12T05:28:44.575Z,20.90
2018-02-12T05:31:11.299Z,22.63
2018-02-12T05:33:38.048Z,21.67
2018-02-12T05:36:04.749Z,22.60
2018-02-12T05:38:31.473Z,21.50
2018-02-12T05:40:58.182Z,22.80
2018-02-12T05:43:24.926Z,23.37
2018-02-12T05:45:51.645Z,21.53
2018-02-12T05:48:18.352Z,22.90
2018-02-12T05:50:45.094Z,21.57
2018-02-12T05:53:11.818Z,20.50
2018-02-12T05:55:38.608Z,21.43
2018-02-12T05:58:05.374Z,20.53
2018-02-12T06:00:32.092Z,19.97
2018-02-12T06:02:58.795Z,23.53
2018-02-12T06:05:25.641Z,21.20
2018-02-12T06:07:52.370Z,22.30
2018-02-12T06:10:19.231Z,21.10
2018-02-12T06:12:45.946Z,22.33
2018-02-12T06:15:12.658Z,20.23
2018-02-12T06:17:39.448Z,22.57
2018-02-12T06:20:06.247Z,21.20
2018-02-12T06:22:33.035Z,22.23
2018-02-12T06:24:59.794Z,22.03
2018-02-12T06:27:26.508Z,23.20
2018-02-12T06:29:53.246Z,21.53
2018-02-12T06:32:19.965Z,21.77
2018-02-12T06:34:46.706Z,22.60
2018-02-12T06:37:13.458Z,22.13
2018-02-12T06:39:40.166Z,22.10
2018-02-12T06:42:06.914Z,21.90
2018-02-12T06:44:33.646Z,23.20
2018-02-12T06:47:00.399Z,22.80
2018-02-12T06:49:27.129Z,23.33
2018-02-12T06:51:53.852Z,25.60
2018-02-12T06:54:20.562Z,21.67
2018-02-12T06:56:47.291Z,22.07
2018-02-12T06:59:14.054Z,21.50
2018-02-12T07:01:40.824Z,20.67
2018-02-12T07:04:07.526Z,22.10
2018-02-12T07:06:34.251Z,20.23
2018-02-12T07:09:00.975Z,21.70
2018-02-12T07:11:27.700Z,22.00
2018-02-12T07:13:54.417Z,21.77
2018-02-12T07:16:21.152Z,23.33
2018-02-12T07:18:47.883Z,21.47
2018-02-12T07:21:14.687Z,20.90
2018-02-12T07:23:41.388Z,20.23
2018-02-12T07:26:08.148Z,20.63
2018-02-12T07:28:34.886Z,19.10
2018-02-12T07:31:01.635Z,22.60
2018-02-12T07:33:28.345Z,22.20
2018-02-12T07:35:55.076Z,21.47
2018-02-12T07:38:21.816Z,20.90
2018-02-12T07:40:48.632Z,22.70
2018-02-12T07:43:15.390Z,22.10
2018-02-12T07:45:42.101Z,21.90
2018-02-12T07:48:08.828Z,19.97
2018-02-12T07:50:35.573Z,19.90
2018-02-12T07:53:02.291Z,20.33
2018-02-12T07:55:28.995Z,21.77
2018-02-12T07:57:55.749Z,20.77
2018-02-12T08:00:22.467Z,23.60
2018-02-12T08:02:50.607Z,24.13
2018-02-12T08:05:17.394Z,21.43
2018-02-12T08:07:44.136Z,22.40
2018-02-12T08:10:10.880Z,24.00
2018-02-12T08:12:37.732Z,23.27
2018-02-12T08:15:04.542Z,23.90
2018-02-12T08:17:31.278Z,24.00
2018-02-12T08:19:58.088Z,23.20
2018-02-12T08:22:27.132Z,24.10
2018-02-12T08:24:53.889Z,24.67
2018-02-12T08:27:20.852Z,26.50
2018-02-12T08:29:47.650Z,27.77
2018-02-12T08:32:17.671Z,29.57
2018-02-12T08:34:44.410Z,31.57
2018-02-12T08:37:11.157Z,31.93
2018-02-12T08:39:37.904Z,33.07
2018-02-12T08:42:04.821Z,32.17
2018-02-12T08:44:31.966Z,30.13
2018-02-12T08:47:00.921Z,30.23
2018-02-12T08:49:29.765Z,29.97
2018-02-12T08:52:02.376Z,28.90
2018-02-12T08:54:36.245Z,27.77
2018-02-12T08:57:12.238Z,31.33
2018-02-12T08:59:45.853Z,26.20
2018-02-12T09:02:19.665Z,23.13
2018-02-12T09:04:46.829Z,23.20
2018-02-12T09:07:13.552Z,23.70
2018-02-12T09:09:40.301Z,23.00
2018-02-12T09:12:07.012Z,22.43
2018-02-12T09:14:33.770Z,21.83
2018-02-12T09:17:00.497Z,24.80
2018-02-12T09:19:27.218Z,24.17
2018-02-12T09:21:53.971Z,23.57
2018-02-12T09:24:20.697Z,22.60
2018-02-12T09:26:47.469Z,21.97
2018-02-12T09:29:14.201Z,23.27
2018-02-12T09:31:40.917Z,23.90
2018-02-12T09:34:07.673Z,23.73
2018-02-12T09:36:34.389Z,31.40
2018-02-12T09:39:01.119Z,26.10
2018-02-12T09:41:27.874Z,25.27
2018-02-12T09:43:54.583Z,25.63
2018-02-12T09:46:21.338Z,25.43
2018-02-12T09:48:48.108Z,23.53
2018-02-12T09:51:14.839Z,25.40
2018-02-12T09:53:41.589Z,24.27
2018-02-12T09:56:08.333Z,23.53
2018-02-12T09:58:35.030Z,23.80
2018-02-12T10:01:01.772Z,23.40
2018-02-12T10:03:28.481Z,23.70
2018-02-12T10:05:55.393Z,23.47
2018-02-12T10:08:22.323Z,24.53
2018-02-12T10:10:49.263Z,40.07
2018-02-12T10:13:16.256Z,26.53
2018-02-12T10:15:43.152Z,27.67
2018-02-12T10:18:10.036Z,27.97
2018-02-12T10:20:36.946Z,28.23
2018-02-12T10:23:04.051Z,27.97
2018-02-12T10:25:30.434Z,24.43
2018-02-12T10:27:57.390Z,25.10
2018-02-12T10:30:24.324Z,26.87
2018-02-12T10:32:51.157Z,25.03
2018-02-12T10:35:18.129Z,26.77
2018-02-12T10:37:45.046Z,26.90
2018-02-12T10:40:11.984Z,25.13
2018-02-12T10:42:38.695Z,25.80
2018-02-12T10:45:05.544Z,20.37
2018-02-12T10:47:32.674Z,22.43
2018-02-12T10:49:59.583Z,24.57
2018-02-12T10:52:26.388Z,24.97
2018-02-12T10:54:53.238Z,22.87
2018-02-12T10:57:19.991Z,24.23
2018-02-12T10:59:46.745Z,25.60
2018-02-12T11:02:13.456Z,22.30
2018-02-12T11:04:40.216Z,25.40
2018-02-12T11:07:06.996Z,23.40
2018-02-12T11:09:33.873Z,24.70
2018-02-12T11:12:00.607Z,24.17
2018-02-12T11:14:27.304Z,25.80
2018-02-12T11:16:54.027Z,25.60
2018-02-12T11:19:20.746Z,25.83
2018-02-12T11:21:47.478Z,31.87
2018-02-12T11:24:14.229Z,28.27
2018-02-12T11:26:40.961Z,27.53
2018-02-12T11:29:07.673Z,27.00
2018-02-12T11:31:36.014Z,27.63
2018-02-12T11:34:02.724Z,27.67
2018-02-12T11:36:29.449Z,30.10
2018-02-12T11:38:56.486Z,28.07
2018-02-12T11:41:23.581Z,26.13
2018-02-12T11:43:50.477Z,24.70
2018-02-12T11:46:17.222Z,28.17
2018-02-12T11:48:43.973Z,27.43
2018-02-12T11:51:10.728Z,25.67
2018-02-12T11:53:37.444Z,26.57
2018-02-12T11:56:04.246Z,24.63
2018-02-12T11:58:30.991Z,22.47
2018-02-12T12:00:57.735Z,26.80
2018-02-12T12:03:24.474Z,25.80
2018-02-12T12:05:51.200Z,24.77
2018-02-12T12:08:17.937Z,22.03
2018-02-12T12:10:44.649Z,25.73
2018-02-12T12:13:11.399Z,25.00
2018-02-12T12:15:38.139Z,25.50
2018-02-12T12:18:04.841Z,24.03
2018-02-12T12:20:35.697Z,23.70
2018-02-12T12:23:08.137Z,24.53
2018-02-12T12:25:40.422Z,24.60
2018-02-12T12:28:10.878Z,23.00
2018-02-12T12:30:39.953Z,24.83
2018-02-12T12:33:08.251Z,24.47
2018-02-12T12:35:36.498Z,25.20
2018-02-12T12:38:15.030Z,26.27
2018-02-12T12:40:43.967Z,26.87
2018-02-12T12:43:13.296Z,23.20
2018-02-12T12:45:42.415Z,23.80
2018-02-12T12:48:09.350Z,24.20
2018-02-12T12:50:36.074Z,25.50
2018-02-12T12:53:23.858Z,23.30
2018-02-12T12:56:11.791Z,25.73
2018-02-12T13:01:48.340Z,23.10
2018-02-12T13:07:30.677Z,27.23
2018-02-12T13:13:10.582Z,24.97
2018-02-12T13:15:38.900Z,24.57
2018-02-12T13:18:05.666Z,23.80
2018-02-12T13:20:32.387Z,24.33
2018-02-12T13:22:59.105Z,24.00
2018-02-12T13:25:25.824Z,28.20
2018-02-12T13:27:52.522Z,24.70
2018-02-12T13:30:19.252Z,25.03
2018-02-12T13:32:45.968Z,26.03
2018-02-12T13:35:12.703Z,24.90
2018-02-12T13:37:39.415Z,26.30
2018-02-12T13:40:06.113Z,25.07
2018-02-12T13:42:33.098Z,27.50
2018-02-12T13:44:59.823Z,26.40
2018-02-12T13:47:26.566Z,28.40
2018-02-12T13:49:53.322Z,26.67
2018-02-12T13:52:20.058Z,24.70
2018-02-12T13:54:46.786Z,24.93
2018-02-12T13:57:13.609Z,25.20
2018-02-12T13:59:40.450Z,27.07
2018-02-12T14:02:07.175Z,25.80
2018-02-12T14:04:33.906Z,27.10
2018-02-12T14:07:00.639Z,27.23
2018-02-12T14:09:27.344Z,25.43
2018-02-12T14:11:54.086Z,26.60
2018-02-12T14:14:20.825Z,30.60
2018-02-12T14:16:47.530Z,27.80
2018-02-12T14:19:14.260Z,28.40
2018-02-12T14:21:49.134Z,26.17
2018-02-12T14:24:32.674Z,24.73
2018-02-12T14:44:06.767Z,32.07
2018-02-12T14:46:33.562Z,30.53
2018-02-12T14:49:00.284Z,28.53
2018-02-12T14:51:27.019Z,29.97
2018-02-12T14:53:53.761Z,28.47
2018-02-12T14:56:20.520Z,28.90
2018-02-12T14:58:47.275Z,28.30
2018-02-12T15:01:14.013Z,29.30
2018-02-12T15:03:40.778Z,30.40
2018-02-12T15:06:07.487Z,28.77
2018-02-12T15:08:34.216Z,26.60
2018-02-12T15:11:00.942Z,29.70
2018-02-12T15:13:27.733Z,27.60
2018-02-12T15:15:54.462Z,28.67
2018-02-12T15:18:21.182Z,28.70
2018-02-12T15:20:47.975Z,28.80
2018-02-12T15:23:14.751Z,29.50
2018-02-12T15:25:41.503Z,29.37
2018-02-12T15:28:08.208Z,53.77
2018-02-12T15:30:35.007Z,44.27
2018-02-12T15:33:01.741Z,32.30
2018-02-12T15:35:28.483Z,29.37
2018-02-12T15:37:55.190Z,27.93
2018-02-12T15:40:21.925Z,27.70
2018-02-12T15:42:48.669Z,31.63
2018-02-12T15:45:15.397Z,29.80
2018-02-12T15:47:42.112Z,27.40
2018-02-12T15:50:08.839Z,30.73
2018-02-12T15:52:35.531Z,27.80
2018-02-12T15:55:02.270Z,26.83
2018-02-12T15:57:29.032Z,27.80
2018-02-12T15:59:55.756Z,26.30
2018-02-12T16:02:22.501Z,27.87
2018-02-12T16:04:49.243Z,26.50
2018-02-12T16:07:15.943Z,25.87
2018-02-12T16:09:42.762Z,25.23
2018-02-12T16:12:09.479Z,25.57
2018-02-12T16:14:36.202Z,24.27
2018-02-12T16:17:03.123Z,25.33
2018-02-12T16:19:29.904Z,24.73
2018-02-12T16:21:56.612Z,23.00
2018-02-12T16:24:23.316Z,20.93
2018-02-12T16:26:50.118Z,21.60
2018-02-12T16:29:16.866Z,22.87
2018-02-12T16:31:43.672Z,21.57
2018-02-12T16:34:10.438Z,25.83
2018-02-12T16:36:37.159Z,24.43
2018-02-12T16:39:03.953Z,23.47
2018-02-12T16:41:30.692Z,24.13
2018-02-12T16:43:58.189Z,27.27
2018-02-12T16:46:24.962Z,26.63
2018-02-12T16:48:51.726Z,27.13
2018-02-12T16:51:18.504Z,26.80
2018-02-12T16:53:45.284Z,27.27
2018-02-12T16:56:12.021Z,26.93
2018-02-12T16:58:38.766Z,24.20
2018-02-12T17:01:05.504Z,27.67
2018-02-12T17:03:33.348Z,25.40
2018-02-12T17:06:01.369Z,25.47
2018-02-12T17:08:28.675Z,25.10
2018-02-12T17:10:55.447Z,24.27
2018-02-12T17:13:22.288Z,24.10
2018-02-12T17:15:49.008Z,23.33
2018-02-12T17:18:15.775Z,23.87
2018-02-12T17:20:42.550Z,23.17
2018-02-12T17:23:09.307Z,29.77
2018-02-12T17:25:36.049Z,27.07
2018-02-12T17:28:02.793Z,23.53
2018-02-12T17:30:29.613Z,23.90
2018-02-12T17:32:57.103Z,29.80
2018-02-12T17:35:23.833Z,23.10
2018-02-12T17:37:50.595Z,22.73
2018-02-12T17:40:17.326Z,24.20
2018-02-12T17:42:44.574Z,21.70
2018-02-12T17:45:11.312Z,23.57
2018-02-12T17:47:38.153Z,21.30
2018-02-12T17:50:04.930Z,20.93
2018-02-12T17:52:31.703Z,22.37
2018-02-12T17:54:58.433Z,21.60
2018-02-12T17:57:25.185Z,22.57
2018-02-12T17:59:51.965Z,23.40
2018-02-12T18:02:18.686Z,20.27
2018-02-12T18:04:45.443Z,22.67
2018-02-12T18:07:12.174Z,23.40
2018-02-12T18:09:38.913Z,18.40
2018-02-12T18:12:05.658Z,16.30
2018-02-12T18:14:32.447Z,15.70
2018-02-12T18:16:59.207Z,14.70
2018-02-12T18:19:25.949Z,15.83
2018-02-12T18:21:52.777Z,14.93
2018-02-12T18:24:19.507Z,14.63
2018-02-12T18:26:46.267Z,15.00
2018-02-12T18:29:13.123Z,16.70
2018-02-12T18:31:39.969Z,16.33
2018-02-12T18:34:06.778Z,15.43
2018-02-12T18:36:33.524Z,15.83
2018-02-12T18:39:00.277Z,17.97
2018-02-12T18:41:27.094Z,16.07
2018-02-12T18:43:53.901Z,19.00
2018-02-12T18:46:20.655Z,18.60
2018-02-12T18:48:47.422Z,20.17
2018-02-12T18:51:14.172Z,21.67
2018-02-12T18:53:40.921Z,23.57
2018-02-12T18:56:07.656Z,19.10
2018-02-12T18:58:34.410Z,19.37
2018-02-12T19:01:01.137Z,19.10
2018-02-12T19:03:27.903Z,18.53
2018-02-12T19:05:54.681Z,17.83
2018-02-12T19:08:21.399Z,21.53
2018-02-12T19:10:48.297Z,20.53
2018-02-12T19:13:15.220Z,21.37
2018-02-12T19:15:42.005Z,18.10
2018-02-12T19:18:09.140Z,15.60
2018-02-12T19:20:36.173Z,13.03
2018-02-12T19:23:03.583Z,14.63
2018-02-12T19:25:30.402Z,13.07
2018-02-12T19:27:57.211Z,9.43
2018-02-12T19:30:23.954Z,8.43
2018-02-12T19:32:50.707Z,8.40
2018-02-12T19:35:17.462Z,11.60
2018-02-12T19:37:44.195Z,10.07
2018-02-12T19:40:10.978Z,9.90
2018-02-12T19:42:37.729Z,6.73
2018-02-12T19:45:04.565Z,7.30
2018-02-12T19:47:31.290Z,6.83
2018-02-12T19:49:58.239Z,6.77
2018-02-12T19:52:24.981Z,6.47
2018-02-12T19:54:51.760Z,6.50
2018-02-12T19:57:18.502Z,4.50
2018-02-12T19:59:45.219Z,4.17
2018-02-12T20:02:11.946Z,5.00
2018-02-12T20:04:38.766Z,4.33
2018-02-12T20:07:05.468Z,4.90
2018-02-12T20:09:32.237Z,4.20
2018-02-12T20:11:58.984Z,11.10
2018-02-12T20:14:25.682Z,6.23
2018-02-12T20:16:52.418Z,6.90
2018-02-12T20:19:19.144Z,7.17
2018-02-12T20:21:45.888Z,7.40
2018-02-12T20:24:12.634Z,6.37
2018-02-12T20:26:39.333Z,7.23
2018-02-12T20:29:06.091Z,7.40
2018-02-12T20:31:32.891Z,7.90
2018-02-12T20:33:59.611Z,6.33
2018-02-12T20:36:26.339Z,7.80
2018-02-12T20:38:53.069Z,9.53
2018-02-12T20:41:19.837Z,8.10
2018-02-12T20:43:46.598Z,8.47
2018-02-12T20:46:13.319Z,9.83
2018-02-12T20:48:40.089Z,12.20
2018-02-12T20:51:06.812Z,9.73
2018-02-12T20:53:33.634Z,9.97
2018-02-12T20:56:00.366Z,11.37
2018-02-12T20:58:27.075Z,11.70
2018-02-12T21:00:53.827Z,9.60
2018-02-12T21:03:20.532Z,6.60
2018-02-12T21:05:47.263Z,6.43
2018-02-12T21:08:14.007Z,6.50
2018-02-12T21:10:40.713Z,6.00
2018-02-12T21:13:07.444Z,6.60
2018-02-12T21:15:34.156Z,7.40
2018-02-12T21:18:00.908Z,6.77
2018-02-12T21:20:30.370Z,8.67
2018-02-12T21:22:57.123Z,8.20
2018-02-12T21:25:23.862Z,7.10
2018-02-12T21:27:50.563Z,7.73
2018-02-12T21:30:17.309Z,11.60
2018-02-12T21:32:44.104Z,13.30
2018-02-12T21:35:10.831Z,12.60
2018-02-12T21:37:37.569Z,12.30
2018-02-12T21:40:04.313Z,10.97
2018-02-12T21:42:31.032Z,15.47
2018-02-12T21:44:57.809Z,14.83
2018-02-12T21:47:24.538Z,14.50
2018-02-12T21:49:51.277Z,16.60
2018-02-12T21:52:18.001Z,24.13
2018-02-12T21:54:44.727Z,22.43
2018-02-12T21:57:11.495Z,21.47
2018-02-12T21:59:38.197Z,26.90
2018-02-12T22:02:04.977Z,26.97
2018-02-12T22:04:31.734Z,28.90
2018-02-12T22:06:58.486Z,31.80
2018-02-12T22:09:25.214Z,31.63
2018-02-12T22:11:51.940Z,29.80
2018-02-12T22:14:18.687Z,26.23
2018-02-12T22:16:45.429Z,26.67
2018-02-12T22:19:12.158Z,26.50
2018-02-12T22:21:38.916Z,24.13
2018-02-12T22:24:05.630Z,20.67
2018-02-12T22:26:32.394Z,22.77
2018-02-12T22:28:59.214Z,28.87
2018-02-12T22:31:25.935Z,28.80
2018-02-12T22:33:52.677Z,22.80
2018-02-12T22:36:19.423Z,27.33
2018-02-12T22:38:46.149Z,28.53
2018-02-12T22:41:12.893Z,31.93
2018-02-12T22:43:39.618Z,29.80
2018-02-12T22:46:06.362Z,26.30
2018-02-12T22:48:33.106Z,27.27
2018-02-12T22:50:59.819Z,26.17
2018-02-12T22:53:26.626Z,29.47
2018-02-12T22:55:53.370Z,27.40
2018-02-12T22:58:20.124Z,23.63
2018-02-12T23:00:46.963Z,19.10
2018-02-12T23:03:13.676Z,19.73
2018-02-12T23:05:40.447Z,21.67
2018-02-12T23:08:07.213Z,18.60
2018-02-12T23:10:33.946Z,18.70
2018-02-12T23:13:00.687Z,18.37
2018-02-12T23:15:33.451Z,17.97
2018-02-12T23:18:00.189Z,17.73
2018-02-12T23:20:26.985Z,15.70
2018-02-12T23:22:53.899Z,14.57
2018-02-12T23:25:20.754Z,11.63
2018-02-12T23:27:47.460Z,7.90
2018-02-12T23:30:15.066Z,6.47
2018-02-12T23:32:41.801Z,5.57
2018-02-12T23:35:08.536Z,5.97
2018-02-12T23:37:35.275Z,4.53
2018-02-12T23:40:02.022Z,6.03
2018-02-12T23:42:28.763Z,5.27
2018-02-12T23:44:55.510Z,4.43
2018-02-12T23:47:22.246Z,5.80
2018-02-12T23:49:49.852Z,9.77
2018-02-12T23:52:16.589Z,10.03
2018-02-12T23:54:43.307Z,9.00
2018-02-12T23:57:10.038Z,7.17
2018-02-12T23:59:36.771Z,7.00
